createdAt,value
2022-09-23T00:01:15.266Z,17.15
2022-09-23T00:03:45.512Z,18.95
2022-09-23T00:06:15.576Z,13.85
2022-09-23T00:08:43.811Z,14.93
2022-09-23T00:11:22.523Z,16.60
2022-09-23T00:13:51.738Z,17.70
2022-09-23T00:16:36.655Z,17.63
2022-09-23T00:19:04.778Z,19.95
2022-09-23T00:21:31.434Z,18.15
2022-09-23T00:23:58.004Z,16.15
2022-09-23T00:26:25.503Z,14.68
2022-09-23T00:28:52.633Z,15.13
2022-09-23T00:31:26.081Z,12.77
2022-09-23T00:33:54.871Z,14.45
2022-09-23T00:36:21.492Z,13.88
2022-09-23T00:38:48.071Z,14.65
2022-09-23T00:41:17.818Z,16.30
2022-09-23T00:43:53.595Z,14.23
2022-09-23T00:46:29.855Z,18.48
2022-09-23T00:49:02.162Z,13.07
2022-09-23T00:51:35.797Z,14.85
2022-09-23T00:54:03.383Z,13.57
2022-09-23T00:56:32.254Z,13.48
2022-09-23T00:59:00.563Z,15.68
2022-09-23T01:01:27.226Z,13.13
2022-09-23T01:03:55.327Z,12.98
2022-09-23T01:06:22.782Z,12.90
2022-09-23T01:08:49.771Z,14.20
2022-09-23T01:11:16.267Z,13.45
2022-09-23T01:14:20.844Z,15.35
2022-09-23T01:16:51.223Z,13.82
2022-09-23T01:19:27.809Z,13.05
2022-09-23T01:22:04.990Z,11.85
2022-09-23T01:25:05.716Z,11.95
2022-09-23T01:27:52.281Z,12.40
2022-09-23T01:30:47.919Z,11.82
2022-09-23T01:33:23.104Z,10.60
2022-09-23T01:36:12.101Z,10.43
2022-09-23T01:38:44.814Z,10.90
2022-09-23T01:41:24.239Z,14.27
2022-09-23T01:43:56.426Z,13.60
2022-09-23T01:46:42.914Z,11.70
2022-09-23T01:49:15.042Z,11.25
2022-09-23T01:51:51.117Z,12.35
2022-09-23T01:54:32.784Z,9.65
2022-09-23T01:57:16.958Z,10.25
2022-09-23T01:59:50.114Z,11.00
2022-09-23T02:02:33.411Z,9.82
2022-09-23T02:05:11.550Z,9.55
2022-09-23T02:07:47.099Z,8.60
2022-09-23T02:10:20.572Z,8.77
2022-09-23T02:12:50.711Z,9.27
2022-09-23T02:15:21.201Z,8.50
2022-09-23T02:17:54.818Z,8.27
2022-09-23T02:20:42.120Z,8.07
2022-09-23T02:23:15.472Z,9.40
2022-09-23T02:26:03.201Z,8.38
2022-09-23T02:28:38.944Z,9.05
2022-09-23T02:31:12.166Z,6.93
2022-09-23T02:33:47.029Z,8.75
2022-09-23T02:36:26.108Z,7.47
2022-09-23T02:38:58.227Z,6.55
2022-09-23T02:41:36.828Z,6.80
2022-09-23T02:44:11.742Z,6.53
